Time;durP1;ratioP1;P1;durP2;ratioP2;P2;SDS_P1;SDS_P2;PMS_P1;PMS_P2;Temp;Humidity;BMP_temperature;BMP_pressure;BME280_temperature;BME280_humidity;BME280_pressure;Samples;Min_cycle;Max_cycle;Signal;HPM_P1;HPM_P2
2021/03/13 00:00:42;;;;;;;4.87;1.12;;;;;;;6.98;87.84;97542.84;4298687;28;20055;-74
2021/03/13 00:03:08;;;;;;;2.03;1.05;;;;;;;7.00;88.18;97535.47;4262142;33;20060;-75
2021/03/13 00:05:38;;;;;;;4.15;1.30;;;;;;;6.96;87.88;97534.19;4261602;33;20400;-75
2021/03/13 00:08:05;;;;;;;3.03;1.05;;;;;;;7.05;87.99;97511.66;4264364;33;20045;-74
2021/03/13 00:10:31;;;;;;;5.80;1.48;;;;;;;6.97;87.81;97527.34;4263475;33;20484;-75
2021/03/13 00:12:57;;;;;;;5.75;1.42;;;;;;;6.99;88.07;97503.22;4256650;33;20113;-75
2021/03/13 00:15:23;;;;;;;3.90;1.50;;;;;;;6.99;88.67;97483.63;4261784;33;20435;-74
2021/03/13 00:17:53;;;;;;;3.45;1.30;;;;;;;7.06;88.15;97474.81;4261564;33;20029;-75
2021/03/13 00:20:23;;;;;;;4.82;1.20;;;;;;;7.04;88.41;97470.97;4263329;33;20656;-75
2021/03/13 00:22:49;;;;;;;5.90;1.67;;;;;;;7.12;88.03;97474.88;4265864;33;20046;-74
2021/03/13 00:25:15;;;;;;;3.78;1.20;;;;;;;7.03;88.03;97467.41;4265491;33;20079;-74
2021/03/13 00:27:48;;;;;;;6.07;1.20;;;;;;;7.08;88.24;97465.94;4262814;33;20434;-75
2021/03/13 00:30:26;;;;;;;4.00;1.30;;;;;;;7.08;87.32;97447.13;4265673;33;20079;-75
2021/03/13 00:32:54;;;;;;;4.32;0.82;;;;;;;7.20;86.40;97445.19;4245408;33;20407;-76
2021/03/13 00:35:22;;;;;;;4.00;0.90;;;;;;;7.16;86.99;97441.88;4263512;33;20081;-75
2021/03/13 00:37:48;;;;;;;6.70;1.12;;;;;;;7.13;86.88;97426.09;4265521;33;20514;-76
2021/03/13 00:40:16;;;;;;;6.68;1.20;;;;;;;7.13;86.59;97420.50;4258212;33;20198;-75
2021/03/13 00:42:43;;;;;;;4.35;1.30;;;;;;;7.12;87.06;97407.78;4265372;33;20045;-75
2021/03/13 00:45:11;;;;;;;5.60;1.15;;;;;;;7.08;87.06;97393.25;4262095;33;20037;-76
2021/03/13 00:47:37;;;;;;;2.47;1.17;;;;;;;7.09;86.77;97384.38;4265665;33;20087;-76
2021/03/13 00:50:04;;;;;;;5.15;0.80;;;;;;;7.03;86.92;97394.72;4258869;33;20089;-74
2021/03/13 00:52:30;;;;;;;1.05;0.60;;;;;;;7.00;86.72;97389.38;4263177;33;20453;-75
2021/03/13 00:54:55;;;;;;;2.75;0.52;;;;;;;7.01;86.52;97366.53;4263254;33;20120;-74
2021/03/13 00:57:21;;;;;;;1.67;0.52;;;;;;;7.04;86.38;97365.53;4261438;33;20507;-74
2021/03/13 00:59:46;;;;;;;2.33;0.65;;;;;;;6.95;86.48;97360.12;4262495;33;20033;-75
2021/03/13 01:02:12;;;;;;;2.25;1.05;;;;;;;6.95;87.45;97354.53;4273023;33;20087;-74
2021/03/13 01:04:37;;;;;;;3.95;1.05;;;;;;;6.93;88.47;97348.66;4276960;33;20098;-76
2021/03/13 01:07:03;;;;;;;3.55;1.08;;;;;;;6.87;88.57;97336.66;4274256;33;20049;-76
2021/03/13 01:09:29;;;;;;;4.07;1.15;;;;;;;6.80;88.70;97325.19;4273399;33;20083;-75
2021/03/13 01:11:55;;;;;;;2.83;1.58;;;;;;;6.87;89.17;97319.91;4273072;33;20180;-75
2021/03/13 01:14:22;;;;;;;1.85;1.00;;;;;;;6.87;89.51;97314.31;4275685;33;20084;-74
2021/03/13 01:16:47;;;;;;;3.87;0.90;;;;;;;6.85;89.15;97308.47;4275597;33;20061;-74
2021/03/13 01:19:13;;;;;;;2.78;0.77;;;;;;;6.89;88.30;97299.84;4277157;33;20104;-74
2021/03/13 01:21:39;;;;;;;0.93;0.60;;;;;;;6.98;88.12;97271.72;4282104;33;20053;-74
2021/03/13 01:24:05;;;;;;;3.22;0.68;;;;;;;6.93;88.11;97272.47;4278540;33;20041;-75
2021/03/13 01:26:31;;;;;;;1.65;0.60;;;;;;;6.95;88.20;97264.31;4279462;33;20081;-74
2021/03/13 01:28:56;;;;;;;4.43;0.60;;;;;;;6.93;88.44;97280.84;4281277;33;20044;-74
2021/03/13 01:31:22;;;;;;;4.12;0.57;;;;;;;7.06;88.37;97281.19;4279285;33;20045;-73
2021/03/13 01:33:48;;;;;;;3.40;0.80;;;;;;;7.11;88.20;97274.84;4282422;33;20125;-74
2021/03/13 01:36:13;;;;;;;3.62;0.73;;;;;;;7.23;87.84;97271.63;4281567;33;20072;-74
2021/03/13 01:38:39;;;;;;;2.67;0.47;;;;;;;7.26;87.22;97270.63;4279413;33;20083;-74
2021/03/13 01:41:04;;;;;;;0.70;0.40;;;;;;;7.30;86.95;97256.44;4276260;33;20048;-74
2021/03/13 01:43:30;;;;;;;1.08;0.47;;;;;;;7.37;86.32;97242.72;4277772;33;20076;-74
2021/03/13 01:45:56;;;;;;;1.62;0.30;;;;;;;7.31;85.87;97235.56;4276154;33;20097;-74
2021/03/13 01:48:43;;;;;;;4.15;0.45;;;;;;;7.28;86.34;97236.56;4276853;33;20084;-74
2021/03/13 01:51:09;;;;;;;2.55;0.62;;;;;;;7.34;86.65;97240.91;4276211;33;20049;-75
2021/03/13 01:53:35;;;;;;;2.62;0.52;;;;;;;7.25;86.70;97232.00;4277671;33;20473;-74
2021/03/13 01:56:02;;;;;;;1.45;0.57;;;;;;;7.28;87.12;97233.78;4278418;33;20076;-76
2021/03/13 01:58:28;;;;;;;3.50;0.50;;;;;;;7.20;87.34;97241.87;4278398;33;20038;-75
2021/03/13 02:00:54;;;;;;;1.92;0.20;;;;;;;7.15;86.61;97225.81;4274071;33;20072;-76
2021/03/13 02:03:20;;;;;;;1.20;0.32;;;;;;;6.91;85.19;97247.03;4274827;33;20403;-75
2021/03/13 02:05:47;;;;;;;1.95;0.35;;;;;;;6.74;84.46;97237.75;4279345;33;20072;-74
